createdAt,value
2022-07-28T00:02:20.102Z,98089.50
2022-07-28T00:04:50.401Z,98086.13
2022-07-28T00:07:20.608Z,98089.19
2022-07-28T00:09:50.818Z,98090.16
2022-07-28T00:12:21.507Z,98090.16
2022-07-28T00:14:51.872Z,98094.75
2022-07-28T00:17:25.178Z,98088.66
2022-07-28T00:19:55.479Z,98090.91
2022-07-28T00:22:25.929Z,98092.69
2022-07-28T00:24:56.187Z,98083.50
2022-07-28T00:27:26.569Z,98090.31
2022-07-28T00:29:56.785Z,98087.25
2022-07-28T00:32:29.704Z,98090.53
2022-07-28T00:35:00.660Z,98080.88
2022-07-28T00:37:32.661Z,98086.97
2022-07-28T00:40:02.875Z,98091.75
2022-07-28T00:42:33.601Z,98086.19
2022-07-28T00:45:03.763Z,98086.88
2022-07-28T00:47:36.673Z,98072.69
2022-07-28T00:50:08.593Z,98082.03
2022-07-28T00:52:39.251Z,98084.84
2022-07-28T00:55:10.724Z,98076.97
2022-07-28T00:57:40.993Z,98076.91
2022-07-28T01:00:13.892Z,98073.84
2022-07-28T01:02:48.197Z,98076.34
2022-07-28T01:05:44.108Z,98069.00
2022-07-28T01:08:19.255Z,98069.97
2022-07-28T01:11:02.483Z,98065.41
2022-07-28T01:13:42.106Z,98073.22
2022-07-28T01:16:12.481Z,98067.88
2022-07-28T01:18:57.298Z,98061.25
2022-07-28T01:21:33.628Z,98058.47
2022-07-28T01:24:25.105Z,98058.69
2022-07-28T01:27:01.969Z,98059.44
2022-07-28T01:29:51.953Z,98060.69
2022-07-28T01:32:28.594Z,98061.88
2022-07-28T01:35:05.186Z,98060.06
2022-07-28T01:37:43.462Z,98060.56
2022-07-28T01:40:17.842Z,98057.50
2022-07-28T01:42:51.323Z,98059.47
2022-07-28T01:45:23.926Z,98060.47
2022-07-28T01:48:00.459Z,98064.78
2022-07-28T01:50:33.186Z,98057.41
2022-07-28T01:53:04.967Z,98065.50
2022-07-28T01:55:37.239Z,98064.47
2022-07-28T01:58:08.030Z,98070.53
2022-07-28T02:00:39.695Z,98066.72
2022-07-28T02:03:14.034Z,98061.34
2022-07-28T02:05:46.789Z,98067.41
2022-07-28T02:08:19.191Z,98069.66
2022-07-28T02:11:11.292Z,98069.66
2022-07-28T02:13:42.520Z,98071.44
2022-07-28T02:16:15.195Z,98068.38
2022-07-28T02:18:49.640Z,98061.72
2022-07-28T02:21:21.454Z,98058.91
2022-07-28T02:23:53.879Z,98069.56
2022-07-28T02:26:32.133Z,98059.19
2022-07-28T02:29:06.861Z,98056.41
2022-07-28T02:31:46.971Z,98065.72
2022-07-28T02:34:27.942Z,98070.00
2022-07-28T02:37:02.118Z,98067.44
2022-07-28T02:39:41.882Z,98073.00
2022-07-28T02:42:26.262Z,98060.31
2022-07-28T02:45:02.477Z,98067.38
2022-07-28T02:47:42.465Z,98064.31
2022-07-28T02:50:18.444Z,98068.09
2022-07-28T02:52:49.937Z,98068.34
2022-07-28T02:55:21.336Z,98066.06
2022-07-28T02:57:56.626Z,98073.91
2022-07-28T03:00:28.325Z,98078.19
2022-07-28T03:02:59.812Z,98072.81
2022-07-28T03:05:33.505Z,98074.28
2022-07-28T03:08:03.919Z,98074.50
2022-07-28T03:10:34.958Z,98070.66
2022-07-28T03:13:07.303Z,98064.53
2022-07-28T03:15:40.339Z,98072.41
2022-07-28T03:18:11.035Z,98080.00
2022-07-28T03:20:43.916Z,98075.69
2022-07-28T03:23:14.706Z,98075.69
2022-07-28T03:25:51.077Z,98079.19
2022-07-28T03:28:24.582Z,98070.28
2022-07-28T03:31:00.463Z,98074.78
2022-07-28T03:33:31.317Z,98081.06
2022-07-28T03:36:11.809Z,98085.63
2022-07-28T03:38:48.264Z,98089.69
2022-07-28T03:41:19.759Z,98083.63
2022-07-28T03:43:50.956Z,98080.06
2022-07-28T03:46:21.663Z,98091.13
2022-07-28T03:48:52.150Z,98095.19
2022-07-28T03:51:25.682Z,98093.66
2022-07-28T03:53:56.077Z,98093.38
2022-07-28T03:56:26.180Z,98097.97
2022-07-28T03:58:56.353Z,98098.19
2022-07-28T04:01:26.699Z,98101.25
2022-07-28T04:03:56.979Z,98104.81
2022-07-28T04:06:29.777Z,98106.59
2022-07-28T04:08:59.972Z,98100.63
2022-07-28T04:11:30.214Z,98100.63
2022-07-28T04:14:00.511Z,98098.06
2022-07-28T04:16:30.850Z,98108.50
2022-07-28T04:19:01.080Z,98103.13
2022-07-28T04:21:33.905Z,98102.16
2022-07-28T04:24:04.088Z,98094.81
2022-07-28T04:26:34.328Z,98099.66
2022-07-28T04:29:04.522Z,98089.84
2022-07-28T04:31:34.991Z,98097.19
2022-07-28T04:34:05.132Z,98089.41
2022-07-28T04:36:42.195Z,98093.22
2022-07-28T04:39:14.015Z,98092.81
2022-07-28T04:41:44.163Z,98087.59
2022-07-28T04:44:15.459Z,98094.00
2022-07-28T04:46:45.903Z,98099.09
2022-07-28T04:49:16.183Z,98096.66
2022-07-28T04:51:50.681Z,98094.97
2022-07-28T04:54:26.357Z,98100.38
2022-07-28T04:56:56.959Z,98108.59
2022-07-28T04:59:27.335Z,98107.16
2022-07-28T05:01:59.958Z,98088.97
2022-07-28T05:04:30.232Z,98089.09
2022-07-28T05:07:11.863Z,98089.94
2022-07-28T05:09:43.065Z,98084.69
2022-07-28T05:12:13.584Z,98078.41
2022-07-28T05:14:43.896Z,98084.84
2022-07-28T05:17:14.140Z,98081.84
2022-07-28T05:19:44.389Z,98084.47
2022-07-28T05:22:17.557Z,98085.03
2022-07-28T05:24:47.737Z,98094.22
2022-07-28T05:27:17.932Z,98081.28
2022-07-28T05:29:48.572Z,98086.13
2022-07-28T05:32:18.978Z,98086.16
2022-07-28T05:34:49.360Z,98090.53
2022-07-28T05:37:22.675Z,98085.75
2022-07-28T05:39:53.112Z,98089.31
2022-07-28T05:42:23.472Z,98095.72
2022-07-28T05:44:53.693Z,98092.97
2022-07-28T05:47:24.326Z,98096.28
2022-07-28T05:49:54.505Z,98093.00
2022-07-28T05:52:28.021Z,98092.00
2022-07-28T05:54:59.182Z,98101.41
2022-07-28T05:57:32.439Z,98098.59
2022-07-28T06:00:06.403Z,98100.91
2022-07-28T06:02:46.387Z,98099.59
2022-07-28T06:05:17.571Z,98095.25
2022-07-28T06:08:00.171Z,98107.47
2022-07-28T06:10:58.577Z,98100.06
2022-07-28T06:13:32.750Z,98103.63
2022-07-28T06:16:12.970Z,98110.75
2022-07-28T06:18:49.350Z,98094.41
2022-07-28T06:21:22.589Z,98100.13
2022-07-28T06:23:58.312Z,98101.53
2022-07-28T06:26:32.916Z,98093.28
2022-07-28T06:29:07.007Z,98091.91
2022-07-28T06:31:37.644Z,98095.44
2022-07-28T06:34:07.717Z,98093.59
2022-07-28T06:36:38.032Z,98097.41
2022-07-28T06:39:11.083Z,98096.59
2022-07-28T06:41:43.480Z,98100.84
2022-07-28T06:44:14.173Z,98103.56
2022-07-28T06:46:44.782Z,98091.41
2022-07-28T06:49:15.249Z,98088.13
2022-07-28T06:51:45.842Z,98099.38
2022-07-28T06:54:18.972Z,98096.59
2022-07-28T06:56:52.110Z,98092.69
2022-07-28T06:59:22.945Z,98087.06
2022-07-28T07:01:53.270Z,98089.09
2022-07-28T07:04:23.570Z,98093.56
2022-07-28T07:06:53.777Z,98094.44
2022-07-28T07:09:26.665Z,98087.94
2022-07-28T07:11:56.972Z,98084.97
2022-07-28T07:14:30.406Z,98068.88
2022-07-28T07:17:00.685Z,98080.81
2022-07-28T07:19:30.887Z,98086.56
2022-07-28T07:22:01.089Z,98077.88
2022-07-28T07:24:34.320Z,98088.00
2022-07-28T07:27:04.558Z,98088.06
2022-07-28T07:29:34.823Z,98085.41
2022-07-28T07:32:10.173Z,98087.09
2022-07-28T07:34:42.147Z,98087.56
2022-07-28T07:37:14.729Z,98090.38
2022-07-28T07:39:47.466Z,98086.50
2022-07-28T07:42:18.021Z,98089.16
2022-07-28T07:44:50.200Z,98091.38
2022-07-28T07:47:21.915Z,98092.69
2022-07-28T07:49:52.537Z,98083.91
2022-07-28T07:52:22.767Z,98082.22
2022-07-28T07:54:55.656Z,98076.06
2022-07-28T07:57:25.856Z,98075.75
2022-07-28T07:59:56.051Z,98071.97
2022-07-28T08:02:26.246Z,98074.06
2022-07-28T08:04:56.560Z,98063.06
2022-07-28T08:07:27.076Z,98068.34
2022-07-28T08:09:59.843Z,98068.72
2022-07-28T08:12:30.241Z,98073.84
2022-07-28T08:15:00.171Z,98080.22
2022-07-28T08:17:30.483Z,98070.69
2022-07-28T08:20:00.428Z,98059.84
2022-07-28T08:22:30.636Z,98066.03
2022-07-28T08:25:03.899Z,98068.97
2022-07-28T08:27:34.067Z,98059.06
2022-07-28T08:30:04.453Z,98064.78
2022-07-28T08:32:34.986Z,98062.56
2022-07-28T08:35:31.616Z,98062.63
2022-07-28T08:37:55.086Z,98059.88
2022-07-28T08:40:28.235Z,98058.94
2022-07-28T08:43:04.728Z,98054.72
2022-07-28T08:45:39.385Z,98052.56
2022-07-28T08:48:13.667Z,98043.97
2022-07-28T08:50:45.346Z,98055.78
2022-07-28T08:53:17.908Z,98044.88
2022-07-28T08:55:52.011Z,98038.06
2022-07-28T08:58:22.944Z,98036.84
2022-07-28T09:00:53.327Z,98039.53
2022-07-28T09:03:23.936Z,98038.09
2022-07-28T09:05:54.456Z,98046.22
2022-07-28T09:08:24.878Z,98049.47
2022-07-28T09:10:57.920Z,98033.09
2022-07-28T09:13:28.195Z,98035.75
2022-07-28T09:15:59.041Z,98035.38
2022-07-28T09:18:29.509Z,98028.34
2022-07-28T09:20:59.782Z,98034.84
2022-07-28T09:23:46.272Z,98029.69
2022-07-28T09:26:20.808Z,98029.56
2022-07-28T09:28:54.135Z,98025.66
2022-07-28T09:31:26.282Z,98027.09
2022-07-28T09:34:03.164Z,98036.91
2022-07-28T09:36:40.440Z,98023.03
2022-07-28T09:39:11.207Z,98022.22
2022-07-28T09:41:58.061Z,98020.06
2022-07-28T09:44:29.794Z,98017.81
2022-07-28T09:47:00.406Z,98017.13
2022-07-28T09:49:45.240Z,98006.09
2022-07-28T09:52:16.010Z,98011.16
2022-07-28T09:55:03.404Z,98022.03
2022-07-28T09:57:38.029Z,98014.63
2022-07-28T10:00:14.233Z,98019.44
2022-07-28T10:02:53.233Z,98010.72
2022-07-28T10:05:23.656Z,98013.97
2022-07-28T10:07:53.963Z,98005.56
2022-07-28T10:10:24.739Z,98001.16
2022-07-28T10:13:08.640Z,97995.53
2022-07-28T10:15:51.337Z,97993.06
2022-07-28T10:18:21.610Z,97986.34
2022-07-28T10:20:52.045Z,97993.22
2022-07-28T10:23:23.480Z,97998.94
2022-07-28T10:25:55.389Z,97999.16
2022-07-28T10:28:28.824Z,97993.31
2022-07-28T10:31:02.432Z,97987.78
2022-07-28T10:33:35.511Z,97984.59
2022-07-28T10:36:06.493Z,97986.31
2022-07-28T10:38:38.855Z,97976.09
2022-07-28T10:41:11.839Z,97974.84
2022-07-28T10:43:45.652Z,97977.66
2022-07-28T10:46:17.074Z,97979.31
2022-07-28T10:48:47.964Z,97976.44
2022-07-28T10:51:18.474Z,97977.91
2022-07-28T10:53:56.146Z,97971.31
2022-07-28T10:56:41.896Z,97969.81
2022-07-28T10:59:32.183Z,97956.78
2022-07-28T11:02:02.281Z,97958.59
2022-07-28T11:05:01.993Z,97956.97
2022-07-28T11:07:42.413Z,97955.28
2022-07-28T11:10:20.564Z,97958.47
2022-07-28T11:12:56.189Z,97955.13
2022-07-28T11:15:35.783Z,97957.09
2022-07-28T11:18:09.606Z,97952.66
2022-07-28T11:21:16.613Z,97948.25
2022-07-28T11:23:58.376Z,97952.59
2022-07-28T11:26:39.829Z,97951.78
2022-07-28T11:29:27.610Z,97952.88
2022-07-28T11:32:08.487Z,97940.16
2022-07-28T11:35:11.335Z,97943.50
2022-07-28T11:38:15.774Z,97931.19
2022-07-28T11:40:48.081Z,97936.88
2022-07-28T11:43:37.000Z,97925.13
2022-07-28T11:46:41.140Z,97924.94
2022-07-28T11:49:31.865Z,97925.13
2022-07-28T11:52:20.887Z,97924.03
2022-07-28T11:54:55.155Z,97922.91
2022-07-28T11:57:26.937Z,97916.13
2022-07-28T12:00:01.092Z,97916.91
2022-07-28T12:02:34.690Z,97915.81
2022-07-28T12:05:15.735Z,97914.41
2022-07-28T12:07:49.902Z,97911.97
2022-07-28T12:10:55.258Z,97915.28
2022-07-28T12:13:30.935Z,97913.47
2022-07-28T12:16:01.187Z,97911.50
2022-07-28T12:18:32.033Z,97903.41
2022-07-28T12:21:05.472Z,97893.44
2022-07-28T12:23:38.929Z,97899.94
2022-07-28T12:26:15.671Z,97899.28
2022-07-28T12:28:56.041Z,97886.75
2022-07-28T12:31:30.096Z,97889.69
2022-07-28T12:34:00.397Z,97880.38
2022-07-28T12:36:33.419Z,97878.84
2022-07-28T12:39:09.480Z,97876.63
2022-07-28T12:41:42.928Z,97878.44
2022-07-28T12:44:14.301Z,97871.97
2022-07-28T12:46:49.381Z,97866.56
2022-07-28T12:49:25.640Z,97869.50
2022-07-28T12:52:00.830Z,97858.25
2022-07-28T12:54:39.473Z,97869.34
2022-07-28T12:57:09.842Z,97865.38
2022-07-28T12:59:42.473Z,97864.88
2022-07-28T13:02:13.071Z,97857.81
2022-07-28T13:04:47.099Z,97848.53
2022-07-28T13:07:30.421Z,97858.41
2022-07-28T13:10:06.834Z,97848.72
2022-07-28T13:12:43.715Z,97840.03
2022-07-28T13:15:19.275Z,97849.97
2022-07-28T13:17:57.189Z,97843.81
2022-07-28T13:20:28.166Z,97847.75
2022-07-28T13:23:01.207Z,97841.88
2022-07-28T13:25:31.688Z,97840.13
2022-07-28T13:28:02.743Z,97842.03
2022-07-28T13:30:34.909Z,97843.16
2022-07-28T13:33:05.143Z,97841.72
2022-07-28T13:35:35.337Z,97836.16
2022-07-28T13:38:08.252Z,97837.66
2022-07-28T13:40:38.985Z,97839.47
2022-07-28T13:43:11.182Z,97834.88
2022-07-28T13:45:41.716Z,97827.72
2022-07-28T13:48:12.887Z,97831.66
2022-07-28T13:50:43.104Z,97838.66
2022-07-28T13:53:30.862Z,97832.41
2022-07-28T13:56:01.332Z,97830.22
2022-07-28T13:58:33.860Z,97827.38
2022-07-28T14:01:04.885Z,97831.41
2022-07-28T14:03:55.975Z,97818.97
2022-07-28T14:06:26.317Z,97816.03
2022-07-28T14:09:04.290Z,97817.53
2022-07-28T14:11:36.458Z,97820.66
2022-07-28T14:14:07.036Z,97817.34
2022-07-28T14:16:37.350Z,97818.81
2022-07-28T14:19:07.656Z,97815.03
2022-07-28T14:21:37.917Z,97809.59
2022-07-28T14:24:12.290Z,97811.81
2022-07-28T14:26:42.758Z,97801.34
2022-07-28T14:29:13.004Z,97805.81
2022-07-28T14:31:43.572Z,97806.66
2022-07-28T14:34:16.858Z,97808.63
2022-07-28T14:36:47.447Z,97803.34
2022-07-28T14:39:25.241Z,97799.78
2022-07-28T14:41:55.481Z,97791.22
2022-07-28T14:44:26.800Z,97786.59
2022-07-28T14:46:57.344Z,97790.56
2022-07-28T14:49:28.180Z,97788.03
2022-07-28T14:51:59.555Z,97795.19
2022-07-28T14:54:32.865Z,97792.44
2022-07-28T14:57:03.253Z,97786.53
2022-07-28T14:59:33.686Z,97794.78
2022-07-28T15:02:09.265Z,97793.22
2022-07-28T15:04:39.623Z,97798.69
2022-07-28T15:07:12.056Z,97796.91
2022-07-28T15:09:50.127Z,97787.00
2022-07-28T15:12:24.341Z,97786.94
2022-07-28T15:14:54.513Z,97785.28
2022-07-28T15:17:24.768Z,97781.53
2022-07-28T15:19:56.318Z,97785.06
2022-07-28T15:22:26.769Z,97778.38
2022-07-28T15:24:59.968Z,97792.50
2022-07-28T15:27:33.748Z,97790.50
2022-07-28T15:30:04.427Z,97791.06
2022-07-28T15:32:54.210Z,97790.88
2022-07-28T15:35:27.830Z,97784.06
2022-07-28T15:37:59.207Z,97789.06
2022-07-28T15:40:32.377Z,97781.38
2022-07-28T15:43:02.810Z,97782.06
2022-07-28T15:45:33.408Z,97783.25
2022-07-28T15:48:04.885Z,97785.41
2022-07-28T15:50:35.286Z,97782.72
2022-07-28T15:53:05.666Z,97782.00
2022-07-28T15:55:39.018Z,97784.53
2022-07-28T15:58:09.596Z,97776.44
2022-07-28T16:00:40.460Z,97783.13
2022-07-28T16:03:11.669Z,97781.13
2022-07-28T16:05:44.166Z,97783.69
2022-07-28T16:08:14.425Z,97790.09
2022-07-28T16:10:47.674Z,97781.91
2022-07-28T16:13:22.529Z,97775.25
2022-07-28T16:15:58.860Z,97773.25
2022-07-28T16:18:29.134Z,97776.03
2022-07-28T16:20:59.357Z,97772.28
2022-07-28T16:23:29.819Z,97770.94
2022-07-28T16:26:03.029Z,97770.97
2022-07-28T16:28:34.342Z,97777.34
2022-07-28T16:31:04.781Z,97774.06
2022-07-28T16:33:35.635Z,97775.47
2022-07-28T16:36:07.572Z,97775.81
2022-07-28T16:38:38.004Z,97776.28
2022-07-28T16:41:11.556Z,97774.75
2022-07-28T16:43:46.769Z,97779.31
2022-07-28T16:46:17.207Z,97775.41
2022-07-28T16:48:47.539Z,97773.34
2022-07-28T16:51:17.718Z,97774.41
2022-07-28T16:53:51.997Z,97776.06
2022-07-28T16:56:24.898Z,97778.63
2022-07-28T16:58:55.088Z,97779.06
2022-07-28T17:01:25.288Z,97782.38
2022-07-28T17:03:55.578Z,97784.59
2022-07-28T17:06:25.848Z,97788.53
2022-07-28T17:08:56.058Z,97785.50
2022-07-28T17:11:28.917Z,97782.19
2022-07-28T17:13:59.062Z,97778.44
2022-07-28T17:16:29.044Z,97785.50
2022-07-28T17:18:59.665Z,97780.25
2022-07-28T17:21:29.860Z,97787.25
2022-07-28T17:24:00.102Z,97785.44
2022-07-28T17:29:25.363Z,97786.13
2022-07-28T17:31:55.487Z,97792.69
2022-07-28T17:34:25.420Z,97789.97
2022-07-28T17:36:55.720Z,97787.41
2022-07-28T17:39:25.962Z,97789.31
2022-07-28T17:41:58.519Z,97796.47
2022-07-28T17:44:28.772Z,97792.38
2022-07-28T17:47:03.808Z,97790.75
2022-07-28T17:49:34.086Z,97798.38
2022-07-28T17:52:05.074Z,97798.63
2022-07-28T17:54:56.085Z,97797.41
2022-07-28T17:57:30.592Z,97798.09
2022-07-28T18:00:10.455Z,97800.47
2022-07-28T18:02:42.325Z,97802.00
2022-07-28T18:05:13.687Z,97806.00
2022-07-28T18:07:50.241Z,97804.00
2022-07-28T18:10:25.087Z,97806.03
2022-07-28T18:13:00.216Z,97803.88
2022-07-28T18:15:32.485Z,97812.81
2022-07-28T18:18:02.714Z,97809.31
2022-07-28T18:20:36.128Z,97809.06
2022-07-28T18:23:07.013Z,97806.69
2022-07-28T18:25:43.473Z,97807.16
2022-07-28T18:28:19.452Z,97812.94
2022-07-28T18:30:50.581Z,97809.06
2022-07-28T18:33:23.354Z,97808.94
2022-07-28T18:35:53.644Z,97809.78
2022-07-28T18:38:23.866Z,97811.72
2022-07-28T18:40:54.099Z,97820.88
2022-07-28T18:43:26.684Z,97816.97
2022-07-28T18:45:56.996Z,97816.47
2022-07-28T18:48:27.352Z,97813.09
2022-07-28T18:50:58.678Z,97810.47
2022-07-28T18:53:29.476Z,97817.91
2022-07-28T18:56:01.825Z,97821.88
2022-07-28T18:58:34.666Z,97827.59
2022-07-28T19:01:04.903Z,97829.91
2022-07-28T19:03:40.758Z,97840.09
2022-07-28T19:06:11.200Z,97840.53
2022-07-28T19:08:41.171Z,97835.81
2022-07-28T19:11:11.480Z,97839.44
2022-07-28T19:13:44.457Z,97840.41
2022-07-28T19:16:14.785Z,97837.22
2022-07-28T19:18:44.958Z,97837.81
2022-07-28T19:21:17.024Z,97839.53
2022-07-28T19:23:48.540Z,97850.69
2022-07-28T19:26:18.823Z,97851.06
2022-07-28T19:28:51.652Z,97857.91
2022-07-28T19:31:21.970Z,97857.31
2022-07-28T19:33:52.332Z,97863.38
2022-07-28T19:36:22.630Z,97859.97
2022-07-28T19:38:52.902Z,97863.75
2022-07-28T19:41:23.320Z,97865.28
2022-07-28T19:43:56.166Z,97860.38
2022-07-28T19:46:26.662Z,97865.28
2022-07-28T19:48:57.469Z,97869.81
2022-07-28T19:51:28.693Z,97868.47
2022-07-28T19:53:59.711Z,97871.31
2022-07-28T19:56:31.559Z,97874.53
2022-07-28T19:59:04.732Z,97875.22
2022-07-28T20:01:34.991Z,97869.38
2022-07-28T20:04:05.617Z,97869.38
2022-07-28T20:06:36.591Z,97875.41
2022-07-28T20:09:08.084Z,97868.97
2022-07-28T20:11:39.151Z,97875.56
2022-07-28T20:14:12.267Z,97881.19
2022-07-28T20:16:42.879Z,97872.66
2022-07-28T20:19:16.782Z,97876.25
2022-07-28T20:21:47.378Z,97873.41
2022-07-28T20:24:19.984Z,97874.53
2022-07-28T20:26:50.202Z,97870.72
2022-07-28T20:29:23.083Z,97872.72
2022-07-28T20:31:53.277Z,97862.72
2022-07-28T20:34:23.509Z,97875.50
2022-07-28T20:36:55.266Z,97870.75
2022-07-28T20:39:43.893Z,97873.94
2022-07-28T20:42:15.524Z,97885.97
2022-07-28T20:44:48.150Z,97882.34
2022-07-28T20:47:18.403Z,97884.00
2022-07-28T20:49:48.581Z,97887.75
2022-07-28T20:52:18.821Z,97883.19
2022-07-28T20:54:53.805Z,97881.63
2022-07-28T20:57:24.700Z,97883.50
2022-07-28T20:59:57.791Z,97873.50
2022-07-28T21:02:28.178Z,97877.97
2022-07-28T21:04:58.495Z,97868.13
2022-07-28T21:08:05.411Z,97882.81
2022-07-28T21:10:19.038Z,97889.34
2022-07-28T21:12:49.937Z,97888.75
2022-07-28T21:15:23.969Z,97884.00
2022-07-28T21:17:57.255Z,97888.66
2022-07-28T21:20:28.202Z,97892.22
2022-07-28T21:22:58.511Z,97886.88
2022-07-28T21:25:28.671Z,97880.31
2022-07-28T21:28:11.295Z,97888.56
2022-07-28T21:30:44.137Z,97887.38
2022-07-28T21:33:22.630Z,97889.44
2022-07-28T21:35:53.316Z,97887.72
2022-07-28T21:38:23.646Z,97892.06
2022-07-28T21:40:53.790Z,97891.44
2022-07-28T21:43:24.046Z,97894.94
2022-07-28T21:45:56.884Z,97897.44
2022-07-28T21:48:27.074Z,97910.00
2022-07-28T21:50:58.163Z,97902.44
2022-07-28T21:53:28.788Z,97910.78
2022-07-28T21:55:58.724Z,97905.69
2022-07-28T21:58:28.844Z,97910.03
2022-07-28T22:01:02.884Z,97913.06
2022-07-28T22:03:33.331Z,97919.69
2022-07-28T22:06:03.936Z,97926.41
2022-07-28T22:08:34.561Z,97920.47
2022-07-28T22:11:04.960Z,97922.72
2022-07-28T22:13:35.721Z,97921.44
2022-07-28T22:16:08.898Z,97933.25
2022-07-28T22:18:39.086Z,97937.69
2022-07-28T22:21:09.534Z,97928.25
2022-07-28T22:23:40.078Z,97923.38
2022-07-28T22:26:10.369Z,97918.09
2022-07-28T22:28:40.630Z,97923.31
2022-07-28T22:31:13.527Z,97924.75
2022-07-28T22:33:43.827Z,97922.25
2022-07-28T22:36:14.237Z,97917.16
2022-07-28T22:38:44.483Z,97920.44
2022-07-28T22:41:14.751Z,97918.91
2022-07-28T22:43:44.946Z,97924.56
2022-07-28T22:46:17.839Z,97924.34
2022-07-28T22:49:04.047Z,97929.13
2022-07-28T22:51:34.908Z,97927.41
2022-07-28T22:54:05.057Z,97935.66
2022-07-28T22:56:37.273Z,97924.69
2022-07-28T22:59:08.213Z,97933.50
2022-07-28T23:01:41.064Z,97926.91
2022-07-28T23:04:11.234Z,97930.44
2022-07-28T23:06:44.842Z,97926.91
2022-07-28T23:09:15.224Z,97928.94
2022-07-28T23:11:55.628Z,97928.38
2022-07-28T23:14:26.674Z,97932.53
2022-07-28T23:16:59.608Z,97930.03
2022-07-28T23:19:29.862Z,97936.44
2022-07-28T23:22:00.452Z,97934.56
2022-07-28T23:24:30.648Z,97949.09
2022-07-28T23:27:00.862Z,97943.13
2022-07-28T23:29:31.002Z,97952.22
2022-07-28T23:32:04.127Z,97944.75
2022-07-28T23:34:34.305Z,97948.31
2022-07-28T23:37:04.777Z,97949.94
2022-07-28T23:39:34.963Z,97946.94
2022-07-28T23:42:05.810Z,97941.81
2022-07-28T23:44:36.045Z,97948.53
2022-07-28T23:47:09.303Z,97939.13
2022-07-28T23:49:39.541Z,97935.84
2022-07-28T23:52:09.730Z,97924.69
2022-07-28T23:54:40.322Z,97921.97
2022-07-28T23:57:10.261Z,97915.69
2022-07-28T23:59:40.491Z,97915.91
